Time;durP1;ratioP1;P1;durP2;ratioP2;P2;SDS_P1;SDS_P2;PMS_P1;PMS_P2;Temp;Humidity;BMP_temperature;BMP_pressure;BME280_temperature;BME280_humidity;BME280_pressure;Samples;Min_cycle;Max_cycle;Signal;HPM_P1;HPM_P2
2023/10/22 00:00:03;;;;;;;;;0.00;0.00;;;;;;;;5065845;28;8875;-85
2023/10/22 00:02:31;;;;;;;;;0.50;0.00;;;;;;;;5058133;28;8786;-85
2023/10/22 00:05:04;;;;;;;;;0.00;0.00;;;;;;;;5074308;28;8862;-85
2023/10/22 00:07:31;;;;;;;;;0.00;0.00;;;;;;;;5063224;28;8885;-85
2023/10/22 00:09:59;;;;;;;;;0.00;0.00;;;;;;;;5065360;28;8857;-84
2023/10/22 00:12:28;;;;;;;;;0.00;0.00;;;;;;;;5070681;28;8981;-86
2023/10/22 00:14:55;;;;;;;;;0.00;0.00;;;;;;;;5068450;28;8850;-84
2023/10/22 00:17:22;;;;;;;;;0.00;0.00;;;;;;;;5071975;28;8862;-85
2023/10/22 00:19:51;;;;;;;;;0.00;0.00;;;;;;;;5073044;28;8885;-84
2023/10/22 00:22:18;;;;;;;;;2.00;0.00;;;;;;;;5073048;28;8883;-84
2023/10/22 00:24:46;;;;;;;;;0.00;0.00;;;;;;;;5073162;28;8893;-84
2023/10/22 00:27:13;;;;;;;;;2.25;0.00;;;;;;;;5066257;28;8866;-85
2023/10/22 00:29:40;;;;;;;;;2.00;0.25;;;;;;;;5071409;28;8981;-85
2023/10/22 00:32:08;;;;;;;;;1.00;0.00;;;;;;;;5070719;28;8904;-83
2023/10/22 00:34:35;;;;;;;;;0.00;0.00;;;;;;;;5071814;28;8845;-82
2023/10/22 00:37:04;;;;;;;;;0.50;0.50;;;;;;;;5067795;28;8837;-83
2023/10/22 00:39:32;;;;;;;;;0.00;0.00;;;;;;;;5065961;28;8865;-83
2023/10/22 00:42:02;;;;;;;;;3.00;1.00;;;;;;;;5053161;28;8865;-83
2023/10/22 00:44:30;;;;;;;;;1.25;1.00;;;;;;;;5062396;28;8862;-84
2023/10/22 00:46:59;;;;;;;;;0.00;0.00;;;;;;;;5066757;28;8843;-83
2023/10/22 00:49:27;;;;;;;;;2.00;2.00;;;;;;;;5070551;28;8850;-82
2023/10/22 00:51:54;;;;;;;;;1.00;1.00;;;;;;;;5071156;28;8865;-83
2023/10/22 00:54:23;;;;;;;;;0.75;0.75;;;;;;;;5075768;28;8878;-83
2023/10/22 00:56:52;;;;;;;;;1.00;1.00;;;;;;;;5068914;28;8950;-83
2023/10/22 00:59:19;;;;;;;;;1.25;1.00;;;;;;;;5071118;28;8843;-83
2023/10/22 01:01:47;;;;;;;;;1.00;1.00;;;;;;;;5064623;28;8798;-82
2023/10/22 01:04:14;;;;;;;;;1.50;1.50;;;;;;;;5070911;28;8858;-83
2023/10/22 01:06:41;;;;;;;;;0.50;0.50;;;;;;;;5055324;28;8874;-81
2023/10/22 01:09:11;;;;;;;;;1.75;1.75;;;;;;;;5071422;28;8863;-82
2023/10/22 01:11:59;;;;;;;;;1.00;1.00;;;;;;;;5062081;28;8954;-81
2023/10/22 01:14:26;;;;;;;;;1.75;1.00;;;;;;;;5065233;28;8892;-82
2023/10/22 01:16:54;;;;;;;;;1.75;1.50;;;;;;;;5062831;28;8835;-82
2023/10/22 01:19:23;;;;;;;;;3.25;1.00;;;;;;;;5068799;28;9623;-81
2023/10/22 01:21:50;;;;;;;;;3.00;1.75;;;;;;;;5073769;28;8858;-82
2023/10/22 01:24:18;;;;;;;;;1.00;1.00;;;;;;;;5072531;28;9628;-82
2023/10/22 01:26:49;;;;;;;;;1.00;1.00;;;;;;;;5065588;28;8851;-82
2023/10/22 01:29:16;;;;;;;;;1.00;1.00;;;;;;;;5068741;28;8858;-80
2023/10/22 01:31:43;;;;;;;;;2.00;1.00;;;;;;;;5069215;28;8811;-81
2023/10/22 01:34:14;;;;;;;;;2.25;1.75;;;;;;;;5070445;28;8973;-82
2023/10/22 01:36:42;;;;;;;;;2.00;2.00;;;;;;;;5067432;28;8843;-82
2023/10/22 01:39:13;;;;;;;;;3.00;3.00;;;;;;;;5063299;28;8900;-82
2023/10/22 01:41:41;;;;;;;;;2.25;2.25;;;;;;;;5065526;28;8855;-82
2023/10/22 01:44:09;;;;;;;;;2.50;2.00;;;;;;;;5057903;28;8888;-83
2023/10/22 01:46:36;;;;;;;;;3.50;2.00;;;;;;;;5065456;28;8862;-82
2023/10/22 01:49:05;;;;;;;;;4.00;1.75;;;;;;;;5069592;28;8880;-81
2023/10/22 01:51:35;;;;;;;;;4.00;1.25;;;;;;;;5061330;28;8841;-82
2023/10/22 01:54:06;;;;;;;;;4.00;1.25;;;;;;;;5069223;28;8880;-80
2023/10/22 01:56:36;;;;;;;;;3.00;1.25;;;;;;;;5069475;28;8851;-82
2023/10/22 01:59:05;;;;;;;;;3.25;1.75;;;;;;;;5065729;28;8838;-81
2023/10/22 02:01:33;;;;;;;;;2.00;1.00;;;;;;;;5058508;28;8783;-82
2023/10/22 02:04:03;;;;;;;;;5.00;3.00;;;;;;;;5069811;28;8859;-82
2023/10/22 02:06:30;;;;;;;;;4.75;3.00;;;;;;;;5069166;28;8851;-82
2023/10/22 02:08:57;;;;;;;;;1.75;1.75;;;;;;;;5067944;28;8896;-83
2023/10/22 02:11:24;;;;;;;;;4.00;1.50;;;;;;;;5072150;28;8854;-81
2023/10/22 02:13:51;;;;;;;;;2.00;1.00;;;;;;;;5070120;28;8896;-82
2023/10/22 02:16:20;;;;;;;;;3.67;1.33;;;;;;;;5063596;28;8865;-82
2023/10/22 02:18:48;;;;;;;;;1.25;1.25;;;;;;;;5063412;28;8864;-82
2023/10/22 02:21:16;;;;;;;;;3.00;3.00;;;;;;;;5068861;28;8879;-82
2023/10/22 02:23:44;;;;;;;;;4.00;2.25;;;;;;;;5066653;28;8881;-82
2023/10/22 02:26:11;;;;;;;;;1.00;1.00;;;;;;;;5059924;28;8843;-82
2023/10/22 02:28:38;;;;;;;;;5.75;4.00;;;;;;;;5068346;28;8869;-81
2023/10/22 02:31:06;;;;;;;;;5.50;2.50;;;;;;;;5061416;28;8791;-83
2023/10/22 02:33:36;;;;;;;;;2.00;2.00;;;;;;;;5068761;28;8839;-82
2023/10/22 02:36:04;;;;;;;;;2.25;2.25;;;;;;;;5069183;28;8854;-82
2023/10/22 02:38:31;;;;;;;;;3.50;3.00;;;;;;;;5066779;28;8854;-82
2023/10/22 02:40:58;;;;;;;;;3.75;3.75;;;;;;;;5067819;28;8861;-81
2023/10/22 02:43:25;;;;;;;;;3.00;2.00;;;;;;;;5068828;28;8968;-84
2023/10/22 02:45:53;;;;;;;;;3.75;3.25;;;;;;;;5068940;28;8851;-83
2023/10/22 02:48:20;;;;;;;;;4.00;2.25;;;;;;;;5059846;28;8877;-83
2023/10/22 02:50:49;;;;;;;;;2.00;2.00;;;;;;;;5066608;28;8838;-82
2023/10/22 02:53:19;;;;;;;;;3.00;3.00;;;;;;;;5062210;28;8879;-82
2023/10/22 02:55:46;;;;;;;;;2.50;2.00;;;;;;;;5064020;28;8839;-83
2023/10/22 02:58:14;;;;;;;;;3.00;2.00;;;;;;;;5067754;28;8868;-83
2023/10/22 03:00:41;;;;;;;;;2.75;2.25;;;;;;;;5055544;28;9525;-83
2023/10/22 03:03:10;;;;;;;;;4.00;2.00;;;;;;;;5069243;28;8866;-82
2023/10/22 03:05:37;;;;;;;;;1.50;1.50;;;;;;;;5053154;28;8867;-83
2023/10/22 03:08:06;;;;;;;;;2.00;1.25;;;;;;;;5062524;28;8887;-83
2023/10/22 03:10:37;;;;;;;;;3.00;3.00;;;;;;;;5067448;28;8851;-82
2023/10/22 03:13:05;;;;;;;;;3.00;1.50;;;;;;;;5058195;28;8838;-82
2023/10/22 03:15:33;;;;;;;;;1.50;1.50;;;;;;;;5054939;28;8853;-81
2023/10/22 03:18:00;;;;;;;;;5.50;3.00;;;;;;;;5067568;28;8871;-83
2023/10/22 03:20:28;;;;;;;;;5.75;3.00;;;;;;;;5068237;28;8858;-82
2023/10/22 03:22:55;;;;;;;;;5.25;3.25;;;;;;;;5069062;28;8957;-83
2023/10/22 03:25:24;;;;;;;;;2.50;2.00;;;;;;;;5064534;28;8935;-83
2023/10/22 03:27:51;;;;;;;;;1.75;1.50;;;;;;;;5065944;28;8862;-83
2023/10/22 03:30:19;;;;;;;;;4.75;2.50;;;;;;;;5052413;28;8845;-83
2023/10/22 03:32:46;;;;;;;;;8.25;2.00;;;;;;;;5065250;28;8883;-83
2023/10/22 03:35:13;;;;;;;;;2.25;2.00;;;;;;;;5068098;28;8998;-82
2023/10/22 03:37:43;;;;;;;;;3.00;3.00;;;;;;;;5067505;28;8863;-83
2023/10/22 03:40:11;;;;;;;;;6.75;2.75;;;;;;;;5063596;28;9247;-82
2023/10/22 03:42:39;;;;;;;;;6.00;3.00;;;;;;;;5055467;28;8834;-82
2023/10/22 03:45:08;;;;;;;;;2.25;1.00;;;;;;;;5064945;28;8855;-82
2023/10/22 03:47:35;;;;;;;;;0.00;0.00;;;;;;;;5065348;28;8839;-82
2023/10/22 03:50:02;;;;;;;;;2.00;1.00;;;;;;;;5064380;28;8885;-82
2023/10/22 03:52:29;;;;;;;;;1.75;1.75;;;;;;;;5065826;28;8846;-82
2023/10/22 03:54:57;;;;;;;;;3.00;1.25;;;;;;;;5069583;28;8953;-82
2023/10/22 03:57:24;;;;;;;;;4.75;2.00;;;;;;;;5069103;28;8847;-82
2023/10/22 03:59:52;;;;;;;;;2.00;1.75;;;;;;;;5068352;28;9634;-82
2023/10/22 04:02:20;;;;;;;;;2.25;1.75;;;;;;;;5071441;28;8799;-82
2023/10/22 04:04:48;;;;;;;;;2.50;2.00;;;;;;;;5066017;28;8853;-83
2023/10/22 04:07:15;;;;;;;;;4.75;1.00;;;;;;;;5071006;28;9620;-81
2023/10/22 04:09:42;;;;;;;;;2.75;2.75;;;;;;;;5062718;28;8959;-82
2023/10/22 04:12:09;;;;;;;;;2.25;1.75;;;;;;;;5069871;28;9656;-82
2023/10/22 04:14:37;;;;;;;;;0.75;0.50;;;;;;;;5061124;28;8862;-82
2023/10/22 04:17:05;;;;;;;;;1.25;1.00;;;;;;;;5093220;28;8984;-83
2023/10/22 04:19:33;;;;;;;;;3.50;2.00;;;;;;;;5060952;28;8853;-82
2023/10/22 04:22:00;;;;;;;;;2.75;1.00;;;;;;;;5059559;28;8907;-82
2023/10/22 04:24:27;;;;;;;;;2.50;1.75;;;;;;;;5070819;28;8843;-83
2023/10/22 04:26:54;;;;;;;;;1.00;1.00;;;;;;;;5057686;28;8967;-82
2023/10/22 04:29:22;;;;;;;;;1.00;1.00;;;;;;;;5068378;28;8883;-82
2023/10/22 04:31:51;;;;;;;;;2.00;2.00;;;;;;;;5064651;28;9590;-83
2023/10/22 04:34:25;;;;;;;;;4.75;2.25;;;;;;;;5066815;28;9948;-82
2023/10/22 04:36:52;;;;;;;;;2.50;1.25;;;;;;;;5055490;28;8865;-82
2023/10/22 04:39:19;;;;;;;;;4.00;1.00;;;;;;;;5059932;28;8862;-82
2023/10/22 04:41:47;;;;;;;;;1.00;1.00;;;;;;;;5065134;28;8853;-81
2023/10/22 04:44:14;;;;;;;;;2.00;2.00;;;;;;;;5058385;28;8869;-81
2023/10/22 04:46:41;;;;;;;;;2.75;2.75;;;;;;;;5070734;28;8955;-82
2023/10/22 04:49:09;;;;;;;;;2.50;2.00;;;;;;;;5060159;28;8870;-82
2023/10/22 04:51:39;;;;;;;;;2.00;2.00;;;;;;;;5060590;28;9716;-82
2023/10/22 04:54:06;;;;;;;;;2.75;1.25;;;;;;;;5069144;28;9566;-81
2023/10/22 04:56:34;;;;;;;;;2.50;2.25;;;;;;;;5070168;28;9648;-82
2023/10/22 04:59:02;;;;;;;;;3.00;1.75;;;;;;;;5054657;28;8846;-83
2023/10/22 05:01:29;;;;;;;;;3.00;1.50;;;;;;;;5059498;28;8787;-82
2023/10/22 05:03:56;;;;;;;;;2.00;2.00;;;;;;;;5069716;28;8893;-82
2023/10/22 05:06:23;;;;;;;;;3.25;2.25;;;;;;;;5069982;28;9594;-82
2023/10/22 05:08:52;;;;;;;;;3.00;1.00;;;;;;;;5065414;28;8875;-82
2023/10/22 05:11:20;;;;;;;;;4.00;2.50;;;;;;;;5061187;28;8867;-82
2023/10/22 05:13:47;;;;;;;;;2.75;1.00;;;;;;;;5070255;28;9759;-82
2023/10/22 05:16:14;;;;;;;;;1.75;1.75;;;;;;;;5067123;28;8859;-82
2023/10/22 05:18:42;;;;;;;;;2.50;2.25;;;;;;;;5068483;28;8842;-82
2023/10/22 05:21:09;;;;;;;;;1.50;1.25;;;;;;;;5061497;28;8853;-83
2023/10/22 05:23:36;;;;;;;;;3.00;1.00;;;;;;;;5062882;28;8865;-82
2023/10/22 05:26:07;;;;;;;;;2.50;2.00;;;;;;;;5057351;28;8863;-82
2023/10/22 05:28:38;;;;;;;;;2.50;2.00;;;;;;;;5067101;28;8945;-84
2023/10/22 05:31:13;;;;;;;;;1.75;1.75;;;;;;;;5058808;28;8774;-84
2023/10/22 05:33:43;;;;;;;;;2.25;2.25;;;;;;;;5064621;28;8882;-83
2023/10/22 05:36:17;;;;;;;;;1.50;1.50;;;;;;;;5063312;28;8835;-78
2023/10/22 05:38:44;;;;;;;;;2.25;0.50;;;;;;;;5065979;28;8924;-77
2023/10/22 05:41:19;;;;;;;;;0.75;0.75;;;;;;;;5070418;28;8843;-77
2023/10/22 05:43:46;;;;;;;;;1.00;1.00;;;;;;;;5072065;28;8869;-79
2023/10/22 05:46:14;;;;;;;;;4.00;1.50;;;;;;;;5072668;28;8870;-77
2023/10/22 05:48:41;;;;;;;;;1.00;1.00;;;;;;;;5072122;28;8859;-78
2023/10/22 05:51:08;;;;;;;;;2.50;1.00;;;;;;;;5068529;28;8851;-77
2023/10/22 05:53:36;;;;;;;;;1.00;1.00;;;;;;;;5069170;28;8886;-76
2023/10/22 05:56:05;;;;;;;;;2.25;1.00;;;;;;;;5070852;28;8863;-78
2023/10/22 05:58:34;;;;;;;;;3.00;1.00;;;;;;;;5068203;28;8842;-77
2023/10/22 06:01:01;;;;;;;;;1.00;1.00;;;;;;;;5064617;28;8799;-77
2023/10/22 06:03:28;;;;;;;;;1.00;1.00;;;;;;;;5068370;28;8888;-76
2023/10/22 06:05:56;;;;;;;;;0.25;0.25;;;;;;;;5057787;28;8862;-78
2023/10/22 06:08:23;;;;;;;;;0.50;0.50;;;;;;;;5067167;28;8839;-78
2023/10/22 06:10:50;;;;;;;;;1.00;1.00;;;;;;;;5067146;28;8858;-77
2023/10/22 06:13:17;;;;;;;;;1.75;0.75;;;;;;;;5065498;28;8970;-77
2023/10/22 06:15:46;;;;;;;;;1.00;1.00;;;;;;;;5067927;28;8878;-78
2023/10/22 06:18:14;;;;;;;;;3.25;2.00;;;;;;;;5065634;28;8968;-78
2023/10/22 06:20:41;;;;;;;;;1.00;1.00;;;;;;;;5067771;28;9762;-79
2023/10/22 06:23:09;;;;;;;;;4.75;2.00;;;;;;;;5056373;28;8837;-86
2023/10/22 06:25:36;;;;;;;;;2.00;1.75;;;;;;;;5068981;28;8909;-85
2023/10/22 06:28:03;;;;;;;;;1.25;1.25;;;;;;;;5066675;28;8847;-84
2023/10/22 06:30:31;;;;;;;;;2.00;1.00;;;;;;;;5068137;28;8767;-82
2023/10/22 06:33:00;;;;;;;;;2.50;1.75;;;;;;;;5057531;28;8827;-83
2023/10/22 06:35:29;;;;;;;;;2.50;1.00;;;;;;;;5068865;28;8861;-83
2023/10/22 06:37:57;;;;;;;;;0.00;0.00;;;;;;;;5062331;28;8847;-82
2023/10/22 06:40:25;;;;;;;;;1.50;1.50;;;;;;;;5066537;28;9768;-79
2023/10/22 06:42:54;;;;;;;;;3.75;1.50;;;;;;;;5067739;28;8874;-83
2023/10/22 06:45:21;;;;;;;;;1.75;1.00;;;;;;;;5074617;28;8966;-77
2023/10/22 06:47:50;;;;;;;;;2.00;1.00;;;;;;;;5066510;28;8847;-86
2023/10/22 06:50:22;;;;;;;;;1.00;1.00;;;;;;;;5069567;28;8875;-88
2023/10/22 06:52:49;;;;;;;;;0.75;0.75;;;;;;;;5061680;28;8908;-78
2023/10/22 06:55:16;;;;;;;;;3.25;2.00;;;;;;;;5068084;28;8855;-85
2023/10/22 06:57:44;;;;;;;;;1.00;1.00;;;;;;;;5066436;28;8961;-86
2023/10/22 07:00:13;;;;;;;;;3.50;1.00;;;;;;;;5055750;28;8915;-86
2023/10/22 07:02:43;;;;;;;;;0.00;0.00;;;;;;;;5062062;28;8851;-80
2023/10/22 07:05:11;;;;;;;;;1.50;1.00;;;;;;;;5061476;28;8855;-76
2023/10/22 07:07:41;;;;;;;;;1.25;1.25;;;;;;;;5063017;28;8851;-76
2023/10/22 07:10:10;;;;;;;;;0.75;0.75;;;;;;;;5067738;28;8851;-79
2023/10/22 07:12:37;;;;;;;;;1.00;1.00;;;;;;;;5068453;28;8846;-79
2023/10/22 07:15:06;;;;;;;;;0.00;0.00;;;;;;;;5067713;28;8899;-78
2023/10/22 07:17:33;;;;;;;;;0.50;0.50;;;;;;;;5067640;28;8847;-75
2023/10/22 07:20:00;;;;;;;;;2.00;0.00;;;;;;;;5068463;28;8846;-76
2023/10/22 07:22:30;;;;;;;;;0.50;0.50;;;;;;;;5068394;28;8870;-78
2023/10/22 07:24:59;;;;;;;;;0.00;0.00;;;;;;;;5057226;28;8859;-75
2023/10/22 07:27:26;;;;;;;;;1.00;1.00;;;;;;;;5064888;28;8846;-82
2023/10/22 07:29:53;;;;;;;;;0.50;0.00;;;;;;;;5071994;28;8858;-75
2023/10/22 07:32:20;;;;;;;;;1.00;1.00;;;;;;;;5064069;28;8815;-77
2023/10/22 07:34:48;;;;;;;;;1.25;0.25;;;;;;;;5067149;28;8835;-79
2023/10/22 07:37:15;;;;;;;;;0.00;0.00;;;;;;;;5073114;28;9688;-76
2023/10/22 07:39:42;;;;;;;;;1.00;1.00;;;;;;;;5067823;28;8845;-77
2023/10/22 07:42:11;;;;;;;;;2.00;0.50;;;;;;;;5060305;28;8885;-85
2023/10/22 07:44:41;;;;;;;;;1.50;0.00;;;;;;;;5069075;28;8853;-75
2023/10/22 07:47:11;;;;;;;;;0.25;0.25;;;;;;;;5065168;28;8858;-83
2023/10/22 07:49:40;;;;;;;;;0.00;0.00;;;;;;;;5058386;28;8847;-82
2023/10/22 07:52:07;;;;;;;;;1.00;1.00;;;;;;;;5060458;28;8854;-84
2023/10/22 07:54:35;;;;;;;;;3.00;1.75;;;;;;;;5071748;28;8850;-82
2023/10/22 07:57:05;;;;;;;;;0.50;0.50;;;;;;;;5074062;28;8951;-82
2023/10/22 07:59:34;;;;;;;;;1.00;1.00;;;;;;;;5068687;28;8854;-84
2023/10/22 08:02:03;;;;;;;;;2.00;1.00;;;;;;;;5049294;28;9557;-79
2023/10/22 08:04:30;;;;;;;;;2.00;0.00;;;;;;;;5069338;28;8831;-83
2023/10/22 08:06:58;;;;;;;;;2.50;1.75;;;;;;;;5059522;28;8857;-83
2023/10/22 08:09:26;;;;;;;;;1.25;1.25;;;;;;;;5071656;28;8894;-82
2023/10/22 08:11:55;;;;;;;;;1.00;1.00;;;;;;;;5068563;28;8817;-82
2023/10/22 08:14:22;;;;;;;;;0.50;0.50;;;;;;;;5065282;28;8851;-76
2023/10/22 08:16:53;;;;;;;;;2.00;1.00;;;;;;;;5071111;28;8835;-82
2023/10/22 08:19:20;;;;;;;;;0.25;0.25;;;;;;;;5070544;28;8850;-82
2023/10/22 08:21:47;;;;;;;;;0.00;0.00;;;;;;;;5067183;28;8869;-83
2023/10/22 08:24:14;;;;;;;;;0.00;0.00;;;;;;;;5061475;28;8857;-82
2023/10/22 08:26:41;;;;;;;;;0.00;0.00;;;;;;;;5057838;28;9562;-83
2023/10/22 08:29:09;;;;;;;;;0.00;0.00;;;;;;;;5069767;28;9491;-83
2023/10/22 08:31:36;;;;;;;;;0.25;0.25;;;;;;;;5069194;28;8802;-80
2023/10/22 08:34:06;;;;;;;;;0.00;0.00;;;;;;;;5058421;28;8838;-78
2023/10/22 08:36:35;;;;;;;;;0.00;0.00;;;;;;;;5069733;28;8854;-84
2023/10/22 08:39:05;;;;;;;;;0.00;0.00;;;;;;;;5052353;28;8891;-83
2023/10/22 08:41:40;;;;;;;;;1.00;1.00;;;;;;;;5068812;28;8865;-82
2023/10/22 08:44:07;;;;;;;;;1.00;1.00;;;;;;;;5070778;28;8906;-85
2023/10/22 08:46:35;;;;;;;;;7.00;6.00;;;;;;;;5060076;28;8854;-77
2023/10/22 08:49:07;;;;;;;;;2.00;2.00;;;;;;;;5057823;28;8851;-75
2023/10/22 08:51:35;;;;;;;;;1.75;1.75;;;;;;;;5068398;28;8949;-76
2023/10/22 08:54:04;;;;;;;;;2.25;2.25;;;;;;;;5069799;28;9705;-74
2023/10/22 08:56:32;;;;;;;;;1.00;1.00;;;;;;;;5063280;28;8935;-80
2023/10/22 08:59:03;;;;;;;;;2.00;2.00;;;;;;;;5061031;28;8839;-81
2023/10/22 09:01:30;;;;;;;;;5.50;3.00;;;;;;;;5067059;28;8880;-80
2023/10/22 09:04:02;;;;;;;;;2.50;1.75;;;;;;;;5069461;28;8862;-80
2023/10/22 09:06:35;;;;;;;;;1.75;1.75;;;;;;;;5070346;28;8851;-79
2023/10/22 09:09:03;;;;;;;;;2.00;2.00;;;;;;;;5070575;28;8881;-76
2023/10/22 09:11:31;;;;;;;;;4.50;2.75;;;;;;;;5064911;28;8838;-78
2023/10/22 09:13:58;;;;;;;;;2.00;2.00;;;;;;;;5073494;28;8882;-80
2023/10/22 09:16:30;;;;;;;;;3.50;2.75;;;;;;;;5067402;28;8866;-79
2023/10/22 09:18:58;;;;;;;;;4.50;3.25;;;;;;;;5073379;28;8878;-77
2023/10/22 09:21:42;;;;;;;;;2.00;2.00;;;;;;;;5062775;28;9224;-76
2023/10/22 09:24:10;;;;;;;;;2.50;2.50;;;;;;;;5064186;28;9002;-78
2023/10/22 09:26:46;;;;;;;;;2.00;2.00;;;;;;;;5069604;28;8863;-83
2023/10/22 09:29:13;;;;;;;;;2.75;2.75;;;;;;;;5069637;28;8889;-80
2023/10/22 09:31:50;;;;;;;;;2.00;2.00;;;;;;;;5059475;28;8824;-81
2023/10/22 09:34:32;;;;;;;;;2.00;2.00;;;;;;;;5067041;28;8875;-81
2023/10/22 09:37:00;;;;;;;;;1.00;0.00;;;;;;;;5061221;28;9597;-85
2023/10/22 09:39:35;;;;;;;;;2.50;1.25;;;;;;;;5068488;28;8938;-78
2023/10/22 09:42:03;;;;;;;;;0.75;0.75;;;;;;;;5061546;28;8852;-78
2023/10/22 09:44:31;;;;;;;;;1.75;1.75;;;;;;;;5065220;28;9689;-75
2023/10/22 09:47:01;;;;;;;;;2.75;1.25;;;;;;;;5062012;28;8863;-81
2023/10/22 09:49:30;;;;;;;;;1.50;1.50;;;;;;;;5069225;28;8867;-82
2023/10/22 09:52:03;;;;;;;;;1.00;1.00;;;;;;;;5066212;28;8870;-78
2023/10/22 09:54:37;;;;;;;;;1.00;1.00;;;;;;;;5061477;28;8862;-79
2023/10/22 09:57:09;;;;;;;;;3.00;2.00;;;;;;;;5060131;28;8862;-82
2023/10/22 09:59:37;;;;;;;;;1.00;1.00;;;;;;;;5067726;28;8871;-81
2023/10/22 10:02:05;;;;;;;;;1.50;1.00;;;;;;;;5066361;28;8825;-79
2023/10/22 10:04:35;;;;;;;;;2.00;1.00;;;;;;;;5067797;28;8867;-76
2023/10/22 10:07:04;;;;;;;;;3.00;1.00;;;;;;;;5067898;28;8831;-82
2023/10/22 10:09:33;;;;;;;;;1.25;1.00;;;;;;;;5067837;28;8896;-77
2023/10/22 10:12:02;;;;;;;;;1.00;1.00;;;;;;;;5066001;28;8969;-75
2023/10/22 10:14:41;;;;;;;;;1.50;0.75;;;;;;;;5067450;28;8858;-79
2023/10/22 10:17:09;;;;;;;;;1.25;1.00;;;;;;;;5067740;28;9036;-76
2023/10/22 10:19:37;;;;;;;;;0.00;0.00;;;;;;;;5068456;28;8850;-79
2023/10/22 10:22:06;;;;;;;;;0.75;0.75;;;;;;;;5068623;28;8850;-77
2023/10/22 10:24:33;;;;;;;;;1.00;1.00;;;;;;;;5065498;28;8859;-76
2023/10/22 10:27:26;;;;;;;;;1.00;1.00;;;;;;;;5056720;28;8855;-77
2023/10/22 10:30:16;;;;;;;;;1.50;1.00;;;;;;;;5065954;28;8862;-76
2023/10/22 10:32:45;;;;;;;;;2.00;1.00;;;;;;;;5063437;28;8823;-75
2023/10/22 10:35:14;;;;;;;;;1.00;1.00;;;;;;;;5068152;28;8855;-78
2023/10/22 10:38:22;;;;;;;;;1.00;1.00;;;;;;;;5067179;28;8831;-76
2023/10/22 10:40:50;;;;;;;;;0.50;0.50;;;;;;;;5065738;28;8890;-75
2023/10/22 10:43:18;;;;;;;;;2.25;0.00;;;;;;;;5066694;28;8851;-79
2023/10/22 10:46:23;;;;;;;;;1.50;0.00;;;;;;;;5065838;28;8893;-77
2023/10/22 10:48:52;;;;;;;;;1.25;0.00;;;;;;;;5067415;28;8855;-75
2023/10/22 10:51:20;;;;;;;;;0.00;0.00;;;;;;;;5070159;28;8882;-75
2023/10/22 10:54:20;;;;;;;;;0.00;0.00;;;;;;;;5068008;28;8981;-76
2023/10/22 10:56:56;;;;;;;;;0.00;0.00;;;;;;;;5071019;28;8931;-75
2023/10/22 10:59:36;;;;;;;;;1.25;0.50;;;;;;;;5071733;28;8993;-75
2023/10/22 11:02:06;;;;;;;;;1.00;1.00;;;;;;;;5070598;28;8827;-75
2023/10/22 11:04:35;;;;;;;;;1.00;0.00;;;;;;;;5071175;28;8855;-76
2023/10/22 11:07:03;;;;;;;;;1.00;1.00;;;;;;;;5072218;28;8859;-76
2023/10/22 11:09:34;;;;;;;;;0.75;0.50;;;;;;;;5067770;28;8854;-74
2023/10/22 11:12:04;;;;;;;;;0.50;0.50;;;;;;;;5065954;28;8861;-74
2023/10/22 11:14:32;;;;;;;;;2.00;0.00;;;;;;;;5068348;28;8858;-76
2023/10/22 11:17:00;;;;;;;;;0.00;0.00;;;;;;;;5066110;28;8873;-80
2023/10/22 11:19:29;;;;;;;;;0.75;0.75;;;;;;;;5067087;28;8981;-78
2023/10/22 11:21:57;;;;;;;;;0.50;0.50;;;;;;;;5065823;28;8865;-82
2023/10/22 11:24:29;;;;;;;;;2.00;0.00;;;;;;;;5066686;28;8880;-77
2023/10/22 11:26:57;;;;;;;;;2.00;1.00;;;;;;;;5066705;28;8843;-75
2023/10/22 11:29:25;;;;;;;;;0.25;0.25;;;;;;;;5065895;28;9717;-76
2023/10/22 11:31:57;;;;;;;;;0.00;0.00;;;;;;;;5058158;28;8977;-76
2023/10/22 11:34:24;;;;;;;;;0.00;0.00;;;;;;;;5065111;28;8870;-76
2023/10/22 11:36:58;;;;;;;;;1.00;1.00;;;;;;;;5066849;28;8868;-82
2023/10/22 11:39:33;;;;;;;;;0.00;0.00;;;;;;;;5066197;28;8912;-75
2023/10/22 11:42:07;;;;;;;;;0.50;0.00;;;;;;;;5065606;28;8894;-74
2023/10/22 11:44:35;;;;;;;;;1.00;1.00;;;;;;;;5065033;28;8976;-75
2023/10/22 11:47:04;;;;;;;;;0.50;0.50;;;;;;;;5065871;28;8870;-76
2023/10/22 11:49:33;;;;;;;;;0.00;0.00;;;;;;;;5066368;28;8965;-76
2023/10/22 11:52:01;;;;;;;;;1.25;1.00;;;;;;;;5065291;28;8866;-75
2023/10/22 11:54:45;;;;;;;;;1.25;0.00;;;;;;;;5065248;28;8858;-80
2023/10/22 11:57:13;;;;;;;;;0.00;0.00;;;;;;;;5063691;28;8833;-75
2023/10/22 11:59:41;;;;;;;;;1.00;1.00;;;;;;;;5066448;28;8858;-80
2023/10/22 12:02:08;;;;;;;;;0.00;0.00;;;;;;;;5066329;28;8787;-75
2023/10/22 12:04:36;;;;;;;;;2.75;1.00;;;;;;;;5066993;28;8858;-74
2023/10/22 12:07:05;;;;;;;;;1.00;1.00;;;;;;;;5065845;28;8874;-76
2023/10/22 12:09:32;;;;;;;;;0.75;0.75;;;;;;;;5066681;28;8843;-77
2023/10/22 12:12:00;;;;;;;;;0.75;0.75;;;;;;;;5066321;28;8881;-81
2023/10/22 12:14:28;;;;;;;;;0.75;0.75;;;;;;;;5067287;28;8835;-77
2023/10/22 12:16:55;;;;;;;;;0.00;0.00;;;;;;;;5066475;28;9001;-76
2023/10/22 12:19:23;;;;;;;;;0.00;0.00;;;;;;;;5067289;28;8851;-81
2023/10/22 12:21:50;;;;;;;;;1.60;0.00;;;;;;;;5070102;28;8871;-80
2023/10/22 12:24:17;;;;;;;;;1.75;0.00;;;;;;;;5070168;28;8835;-81
2023/10/22 12:26:44;;;;;;;;;0.40;0.40;;;;;;;;5069966;28;8855;-75
2023/10/22 12:29:13;;;;;;;;;0.00;0.00;;;;;;;;5070494;28;8865;-80
2023/10/22 12:31:41;;;;;;;;;1.60;0.60;;;;;;;;5069647;28;8897;-75
2023/10/22 12:34:08;;;;;;;;;1.00;1.00;;;;;;;;5069866;28;8853;-74
2023/10/22 12:36:36;;;;;;;;;0.60;0.60;;;;;;;;5070785;28;8870;-74
2023/10/22 12:39:07;;;;;;;;;1.60;0.00;;;;;;;;5069399;28;8850;-77
2023/10/22 12:41:34;;;;;;;;;0.00;0.00;;;;;;;;5061228;28;8835;-77
2023/10/22 12:44:02;;;;;;;;;1.60;0.00;;;;;;;;5072609;28;8866;-73
2023/10/22 12:46:33;;;;;;;;;0.00;0.00;;;;;;;;5061679;28;8863;-79
2023/10/22 12:49:02;;;;;;;;;1.00;1.00;;;;;;;;5072446;28;8981;-75
2023/10/22 12:51:29;;;;;;;;;0.00;0.00;;;;;;;;5070786;28;8993;-77
2023/10/22 12:53:57;;;;;;;;;0.60;0.60;;;;;;;;5068147;28;9738;-74
2023/10/22 12:56:24;;;;;;;;;1.20;0.60;;;;;;;;5069370;28;8843;-83
2023/10/22 12:58:55;;;;;;;;;1.80;0.00;;;;;;;;5067469;28;8970;-77
2023/10/22 13:01:22;;;;;;;;;0.00;0.00;;;;;;;;5059580;28;8811;-79
2023/10/22 13:03:49;;;;;;;;;1.00;1.00;;;;;;;;5069418;28;8875;-80
2023/10/22 13:06:18;;;;;;;;;0.40;0.00;;;;;;;;5069500;28;9027;-77
2023/10/22 13:08:45;;;;;;;;;0.40;0.00;;;;;;;;5069191;28;8892;-75
2023/10/22 13:11:17;;;;;;;;;0.40;0.00;;;;;;;;5069465;28;8851;-75
2023/10/22 13:13:44;;;;;;;;;2.00;0.60;;;;;;;;5069465;28;8863;-82
2023/10/22 13:16:12;;;;;;;;;0.00;0.00;;;;;;;;5071935;28;8855;-76
2023/10/22 13:18:40;;;;;;;;;0.00;0.00;;;;;;;;5069870;28;8881;-76
2023/10/22 13:21:07;;;;;;;;;0.00;0.00;;;;;;;;5069249;28;8866;-78
2023/10/22 13:23:35;;;;;;;;;0.00;0.00;;;;;;;;5068834;28;8872;-79
2023/10/22 13:26:04;;;;;;;;;0.60;0.00;;;;;;;;5069307;28;8850;-75
2023/10/22 13:28:32;;;;;;;;;0.00;0.00;;;;;;;;5069356;28;9009;-78
2023/10/22 13:30:59;;;;;;;;;0.20;0.20;;;;;;;;5068083;28;8818;-75
2023/10/22 13:33:26;;;;;;;;;0.00;0.00;;;;;;;;5068908;28;8859;-79
2023/10/22 13:35:53;;;;;;;;;1.00;1.00;;;;;;;;5069107;28;8855;-78
2023/10/22 13:38:20;;;;;;;;;1.20;0.00;;;;;;;;5067365;28;8867;-79
2023/10/22 13:40:49;;;;;;;;;0.00;0.00;;;;;;;;5068463;28;8971;-81
2023/10/22 13:43:18;;;;;;;;;0.00;0.00;;;;;;;;5068733;28;8851;-83
2023/10/22 13:45:46;;;;;;;;;0.00;0.00;;;;;;;;5067773;28;8971;-79
2023/10/22 13:48:13;;;;;;;;;0.00;0.00;;;;;;;;5072287;28;8873;-78
2023/10/22 13:50:43;;;;;;;;;1.00;0.40;;;;;;;;5068210;28;8843;-77
2023/10/22 13:53:11;;;;;;;;;0.00;0.00;;;;;;;;5068005;28;8855;-80
2023/10/22 13:55:39;;;;;;;;;0.00;0.00;;;;;;;;5068511;28;8861;-77
2023/10/22 13:58:07;;;;;;;;;0.00;0.00;;;;;;;;5068525;28;8850;-75
2023/10/22 14:00:38;;;;;;;;;0.00;0.00;;;;;;;;5054696;28;8815;-83
2023/10/22 14:03:06;;;;;;;;;1.00;0.00;;;;;;;;5068380;28;8843;-76
2023/10/22 14:05:36;;;;;;;;;1.40;1.40;;;;;;;;5066950;28;8897;-74
2023/10/22 14:08:06;;;;;;;;;0.60;0.60;;;;;;;;5068517;28;8866;-77
2023/10/22 14:10:34;;;;;;;;;0.00;0.00;;;;;;;;5067086;28;8888;-73
2023/10/22 14:13:04;;;;;;;;;0.00;0.00;;;;;;;;5068869;28;8908;-77
2023/10/22 14:15:33;;;;;;;;;1.20;0.00;;;;;;;;5068524;28;8889;-75
2023/10/22 14:18:00;;;;;;;;;0.00;0.00;;;;;;;;5068298;28;8846;-77
2023/10/22 14:20:27;;;;;;;;;0.00;0.00;;;;;;;;5067737;28;8855;-75
2023/10/22 14:22:54;;;;;;;;;0.00;0.00;;;;;;;;5069387;28;8901;-76
2023/10/22 14:25:21;;;;;;;;;0.20;0.20;;;;;;;;5071026;28;8877;-74
2023/10/22 14:27:49;;;;;;;;;1.40;0.60;;;;;;;;5071112;28;8852;-77
2023/10/22 14:30:16;;;;;;;;;1.20;0.40;;;;;;;;5070174;28;8993;-79
2023/10/22 14:32:44;;;;;;;;;0.00;0.00;;;;;;;;5071124;28;8908;-74
2023/10/22 14:35:13;;;;;;;;;1.80;1.80;;;;;;;;5071231;28;8851;-77
2023/10/22 14:37:40;;;;;;;;;0.20;0.20;;;;;;;;5067443;28;9646;-74
2023/10/22 14:40:09;;;;;;;;;0.40;0.40;;;;;;;;5066648;28;8843;-77
2023/10/22 14:42:36;;;;;;;;;2.40;1.00;;;;;;;;5066027;28;8839;-77
2023/10/22 14:45:04;;;;;;;;;2.40;1.00;;;;;;;;5068254;28;8989;-80
2023/10/22 14:47:31;;;;;;;;;2.00;0.40;;;;;;;;5068530;28;8961;-74
2023/10/22 14:50:02;;;;;;;;;1.00;1.00;;;;;;;;5069124;28;8900;-83
2023/10/22 14:52:29;;;;;;;;;2.80;1.00;;;;;;;;5067631;28;8956;-77
2023/10/22 14:54:56;;;;;;;;;1.20;0.60;;;;;;;;5067870;28;8851;-81
2023/10/22 14:57:23;;;;;;;;;2.00;1.00;;;;;;;;5067044;28;10065;-75
2023/10/22 14:59:51;;;;;;;;;0.60;0.60;;;;;;;;5057729;28;8833;-76
2023/10/22 15:02:18;;;;;;;;;1.00;1.00;;;;;;;;5062784;28;8909;-74
2023/10/22 15:04:45;;;;;;;;;0.80;0.80;;;;;;;;5067177;28;8901;-75